sensor_id;sensor_type;location;lat;lon;timestamp;pressure;altitude;pressure_sealevel;temperature;humidity
76297;BME280;65104;52.994;6.552;2023-07-13T00:01:31;101177.84;;;15.18;100.00
76297;BME280;65104;52.994;6.552;2023-07-13T00:03:57;101180.38;;;15.11;100.00
76297;BME280;65104;52.994;6.552;2023-07-13T00:06:23;101170.91;;;15.11;100.00
76297;BME280;65104;52.994;6.552;2023-07-13T00:08:50;101167.50;;;15.18;100.00
76297;BME280;65104;52.994;6.552;2023-07-13T00:11:17;101174.38;;;15.16;100.00
76297;BME280;65104;52.994;6.552;2023-07-13T00:13:43;101173.53;;;15.22;100.00
76297;BME280;65104;52.994;6.552;2023-07-13T00:16:11;101176.13;;;15.19;100.00
76297;BME280;65104;52.994;6.552;2023-07-13T00:18:38;101177.84;;;15.24;100.00
76297;BME280;65104;52.994;6.552;2023-07-13T00:21:06;101179.59;;;15.31;100.00
76297;BME280;65104;52.994;6.552;2023-07-13T00:23:33;101185.66;;;15.32;100.00
76297;BME280;65104;52.994;6.552;2023-07-13T00:26:01;101177.00;;;15.25;100.00
76297;BME280;65104;52.994;6.552;2023-07-13T00:28:27;101188.28;;;15.43;100.00
76297;BME280;65104;52.994;6.552;2023-07-13T00:30:52;101183.13;;;15.43;100.00
76297;BME280;65104;52.994;6.552;2023-07-13T00:33:19;101176.25;;;15.51;100.00
76297;BME280;65104;52.994;6.552;2023-07-13T00:35:45;101179.78;;;15.56;100.00
76297;BME280;65104;52.994;6.552;2023-07-13T00:38:12;101180.63;;;15.58;100.00
76297;BME280;65104;52.994;6.552;2023-07-13T00:40:37;101182.28;;;15.51;100.00
76297;BME280;65104;52.994;6.552;2023-07-13T00:43:04;101173.72;;;15.55;100.00
76297;BME280;65104;52.994;6.552;2023-07-13T00:47:56;101171.16;;;15.57;100.00
76297;BME280;65104;52.994;6.552;2023-07-13T00:50:22;101177.16;;;15.59;100.00
76297;BME280;65104;52.994;6.552;2023-07-13T00:52:53;101178.91;;;15.58;100.00
76297;BME280;65104;52.994;6.552;2023-07-13T00:55:24;101188.41;;;15.61;100.00
76297;BME280;65104;52.994;6.552;2023-07-13T00:57:50;101183.22;;;15.56;100.00
76297;BME280;65104;52.994;6.552;2023-07-13T01:00:15;101184.94;;;15.60;100.00
76297;BME280;65104;52.994;6.552;2023-07-13T01:02:43;101186.69;;;15.63;100.00
76297;BME280;65104;52.994;6.552;2023-07-13T01:05:11;101184.09;;;15.63;100.00
76297;BME280;65104;52.994;6.552;2023-07-13T01:07:38;101192.75;;;15.69;100.00
76297;BME280;65104;52.994;6.552;2023-07-13T01:10:05;101194.44;;;15.66;100.00
76297;BME280;65104;52.994;6.552;2023-07-13T01:12:31;101191.84;;;15.66;100.00
76297;BME280;65104;52.994;6.552;2023-07-13T01:14:58;101199.63;;;15.61;100.00
76297;BME280;65104;52.994;6.552;2023-07-13T01:17:29;101197.94;;;15.69;100.00
76297;BME280;65104;52.994;6.552;2023-07-13T01:19:56;101206.56;;;15.65;100.00
76297;BME280;65104;52.994;6.552;2023-07-13T01:22:23;101200.50;;;15.63;100.00
76297;BME280;65104;52.994;6.552;2023-07-13T01:24:52;101202.22;;;15.69;100.00
76297;BME280;65104;52.994;6.552;2023-07-13T01:27:23;101195.31;;;15.63;100.00
76297;BME280;65104;52.994;6.552;2023-07-13T01:29:51;101197.94;;;15.75;100.00
76297;BME280;65104;52.994;6.552;2023-07-13T01:32:21;101196.19;;;15.70;100.00
76297;BME280;65104;52.994;6.552;2023-07-13T01:34:47;101193.63;;;15.73;100.00
76297;BME280;65104;52.994;6.552;2023-07-13T01:37:13;101201.38;;;15.68;100.00
76297;BME280;65104;52.994;6.552;2023-07-13T01:39:39;101203.97;;;15.70;100.00
76297;BME280;65104;52.994;6.552;2023-07-13T01:42:06;101202.25;;;15.73;100.00
76297;BME280;65104;52.994;6.552;2023-07-13T01:44:31;101199.66;;;15.70;100.00
76297;BME280;65104;52.994;6.552;2023-07-13T01:46:57;101198.81;;;15.76;100.00
76297;BME280;65104;52.994;6.552;2023-07-13T01:49:22;101198.78;;;15.68;100.00
76297;BME280;65104;52.994;6.552;2023-07-13T01:51:48;101203.09;;;15.69;100.00
76297;BME280;65104;52.994;6.552;2023-07-13T01:54:13;101198.78;;;15.70;100.00
76297;BME280;65104;52.994;6.552;2023-07-13T01:56:38;101199.66;;;15.69;100.00
76297;BME280;65104;52.994;6.552;2023-07-13T01:59:06;101196.19;;;15.67;100.00
76297;BME280;65104;52.994;6.552;2023-07-13T02:01:31;101205.66;;;15.62;100.00
76297;BME280;65104;52.994;6.552;2023-07-13T02:03:56;101199.66;;;15.69;100.00
76297;BME280;65104;52.994;6.552;2023-07-13T02:06:22;101209.09;;;15.58;100.00
76297;BME280;65104;52.994;6.552;2023-07-13T02:08:47;101205.66;;;15.60;100.00
76297;BME280;65104;52.994;6.552;2023-07-13T02:11:14;101201.34;;;15.55;100.00
76297;BME280;65104;52.994;6.552;2023-07-13T02:13:39;101193.50;;;15.50;100.00
76297;BME280;65104;52.994;6.552;2023-07-13T02:16:05;101202.13;;;15.51;100.00
76297;BME280;65104;52.994;6.552;2023-07-13T02:18:31;101198.69;;;15.52;100.00
76297;BME280;65104;52.994;6.552;2023-07-13T02:20:57;101207.38;;;15.54;100.00
76297;BME280;65104;52.994;6.552;2023-07-13T02:23:22;101207.25;;;15.42;100.00
76297;BME280;65104;52.994;6.552;2023-07-13T02:25:47;101213.28;;;15.40;100.00
76297;BME280;65104;52.994;6.552;2023-07-13T02:28:14;101209.84;;;15.35;100.00
76297;BME280;65104;52.994;6.552;2023-07-13T02:30:39;101216.69;;;15.32;100.00
76297;BME280;65104;52.994;6.552;2023-07-13T02:33:06;101217.56;;;15.31;100.00
76297;BME280;65104;52.994;6.552;2023-07-13T02:35:32;101207.19;;;15.26;100.00
76297;BME280;65104;52.994;6.552;2023-07-13T02:37:57;101208.91;;;15.30;100.00
76297;BME280;65104;52.994;6.552;2023-07-13T02:40:22;101209.81;;;15.29;100.00
76297;BME280;65104;52.994;6.552;2023-07-13T02:42:48;101208.91;;;15.24;100.00
76297;BME280;65104;52.994;6.552;2023-07-13T02:45:14;101210.59;;;15.22;100.00
76297;BME280;65104;52.994;6.552;2023-07-13T02:47:41;101201.09;;;15.17;100.00
76297;BME280;65104;52.994;6.552;2023-07-13T02:50:08;101203.69;;;15.15;100.00
76297;BME280;65104;52.994;6.552;2023-07-13T02:52:34;101215.72;;;15.13;100.00
76297;BME280;65104;52.994;6.552;2023-07-13T02:54:59;101200.19;;;15.07;100.00
76297;BME280;65104;52.994;6.552;2023-07-13T02:57:24;101220.91;;;15.13;100.00
76297;BME280;65104;52.994;6.552;2023-07-13T02:59:50;101214.88;;;15.13;100.00
76297;BME280;65104;52.994;6.552;2023-07-13T03:02:16;101220.03;;;15.10;100.00
76297;BME280;65104;52.994;6.552;2023-07-13T03:04:42;101214.88;;;15.11;100.00
76297;BME280;65104;52.994;6.552;2023-07-13T03:07:09;101215.72;;;15.10;100.00
76297;BME280;65104;52.994;6.552;2023-07-13T03:09:36;101208.81;;;15.09;100.00
76297;BME280;65104;52.994;6.552;2023-07-13T03:12:02;101207.06;;;15.05;100.00
76297;BME280;65104;52.994;6.552;2023-07-13T03:14:28;101206.19;;;15.01;100.00
76297;BME280;65104;52.994;6.552;2023-07-13T03:16:53;101209.63;;;14.99;100.00
76297;BME280;65104;52.994;6.552;2023-07-13T03:19:20;101207.84;;;14.92;100.00
76297;BME280;65104;52.994;6.552;2023-07-13T03:21:46;101219.00;;;14.88;100.00
76297;BME280;65104;52.994;6.552;2023-07-13T03:24:11;101214.69;;;14.82;100.00
76297;BME280;65104;52.994;6.552;2023-07-13T03:26:36;101221.50;;;14.77;100.00
76297;BME280;65104;52.994;6.552;2023-07-13T03:29:03;101224.06;;;14.73;100.00
76297;BME280;65104;52.994;6.552;2023-07-13T03:31:33;101223.28;;;14.81;100.00
76297;BME280;65104;52.994;6.552;2023-07-13T03:33:59;101216.34;;;14.77;100.00
76297;BME280;65104;52.994;6.552;2023-07-13T03:36:26;101219.84;;;14.82;100.00
76297;BME280;65104;52.994;6.552;2023-07-13T03:38:55;101220.75;;;14.89;100.00
76297;BME280;65104;52.994;6.552;2023-07-13T03:41:21;101225.00;;;14.85;100.00
76297;BME280;65104;52.994;6.552;2023-07-13T03:43:47;101225.09;;;14.91;100.00
76297;BME280;65104;52.994;6.552;2023-07-13T03:46:15;101225.88;;;14.86;100.00
76297;BME280;65104;52.994;6.552;2023-07-13T03:48:44;101226.69;;;14.76;100.00
76297;BME280;65104;52.994;6.552;2023-07-13T03:51:12;101235.31;;;14.79;100.00
76297;BME280;65104;52.994;6.552;2023-07-13T03:53:42;101233.63;;;14.81;100.00
76297;BME280;65104;52.994;6.552;2023-07-13T03:56:09;101231.06;;;14.83;100.00
76297;BME280;65104;52.994;6.552;2023-07-13T03:58:38;101236.25;;;14.89;100.00
76297;BME280;65104;52.994;6.552;2023-07-13T04:01:07;101241.44;;;14.89;100.00
76297;BME280;65104;52.994;6.552;2023-07-13T04:03:33;101236.22;;;14.86;100.00
76297;BME280;65104;52.994;6.552;2023-07-13T04:06:00;101239.72;;;14.91;100.00
76297;BME280;65104;52.994;6.552;2023-07-13T04:08:33;101249.16;;;14.86;100.00
76297;BME280;65104;52.994;6.552;2023-07-13T04:11:00;101249.22;;;14.92;100.00
76297;BME280;65104;52.994;6.552;2023-07-13T04:13:28;101255.25;;;14.91;100.00
76297;BME280;65104;52.994;6.552;2023-07-13T04:15:54;101253.50;;;14.90;100.00
76297;BME280;65104;52.994;6.552;2023-07-13T04:18:21;101260.50;;;15.00;100.00
76297;BME280;65104;52.994;6.552;2023-07-13T04:20:48;101244.13;;;15.02;100.00
76297;BME280;65104;52.994;6.552;2023-07-13T04:23:14;101253.56;;;14.97;100.00
76297;BME280;65104;52.994;6.552;2023-07-13T04:25:43;101265.63;;;14.97;100.00
76297;BME280;65104;52.994;6.552;2023-07-13T04:28:10;101261.34;;;14.99;100.00
76297;BME280;65104;52.994;6.552;2023-07-13T04:30:36;101261.34;;;15.00;100.00
76297;BME280;65104;52.994;6.552;2023-07-13T04:33:03;101269.06;;;14.96;100.00
76297;BME280;65104;52.994;6.552;2023-07-13T04:35:29;101269.94;;;14.93;100.00
76297;BME280;65104;52.994;6.552;2023-07-13T04:37:55;101273.31;;;14.88;100.00
76297;BME280;65104;52.994;6.552;2023-07-13T04:40:20;101278.59;;;15.00;100.00
76297;BME280;65104;52.994;6.552;2023-07-13T04:42:46;101267.41;;;15.01;100.00
76297;BME280;65104;52.994;6.552;2023-07-13T04:45:14;101281.28;;;15.15;100.00
76297;BME280;65104;52.994;6.552;2023-07-13T04:47:40;101281.31;;;15.18;100.00
76297;BME280;65104;52.994;6.552;2023-07-13T04:50:08;101279.56;;;15.17;100.00
76297;BME280;65104;52.994;6.552;2023-07-13T04:52:34;101283.97;;;15.29;100.00
76297;BME280;65104;52.994;6.552;2023-07-13T04:55:00;101288.31;;;15.30;100.00
76297;BME280;65104;52.994;6.552;2023-07-13T04:57:28;101291.72;;;15.30;100.00
76297;BME280;65104;52.994;6.552;2023-07-13T04:59:53;101283.09;;;15.28;100.00
76297;BME280;65104;52.994;6.552;2023-07-13T05:02:20;101289.13;;;15.26;100.00
76297;BME280;65104;52.994;6.552;2023-07-13T05:04:47;101286.56;;;15.27;100.00
76297;BME280;65104;52.994;6.552;2023-07-13T05:07:14;101294.31;;;15.27;100.00
76297;BME280;65104;52.994;6.552;2023-07-13T05:09:40;101297.78;;;15.34;100.00
76297;BME280;65104;52.994;6.552;2023-07-13T05:12:08;101301.25;;;15.30;100.00
76297;BME280;65104;52.994;6.552;2023-07-13T05:14:33;101296.97;;;15.38;100.00
76297;BME280;65104;52.994;6.552;2023-07-13T05:17:00;101296.13;;;15.42;100.00
76297;BME280;65104;52.994;6.552;2023-07-13T05:19:27;101287.50;;;15.43;100.00
76297;BME280;65104;52.994;6.552;2023-07-13T05:21:52;101298.75;;;15.45;100.00
76297;BME280;65104;52.994;6.552;2023-07-13T05:24:19;101306.53;;;15.51;100.00
76297;BME280;65104;52.994;6.552;2023-07-13T05:26:45;101312.53;;;15.49;100.00
76297;BME280;65104;52.994;6.552;2023-07-13T05:29:11;101306.50;;;15.50;100.00
76297;BME280;65104;52.994;6.552;2023-07-13T05:31:37;101315.28;;;15.64;100.00
76297;BME280;65104;52.994;6.552;2023-07-13T05:34:03;101317.03;;;15.69;100.00
76297;BME280;65104;52.994;6.552;2023-07-13T05:36:28;101312.69;;;15.64;100.00
76297;BME280;65104;52.994;6.552;2023-07-13T05:38:54;101311.00;;;15.73;100.00
76297;BME280;65104;52.994;6.552;2023-07-13T05:41:19;101311.03;;;15.78;100.00
76297;BME280;65104;52.994;6.552;2023-07-13T05:43:44;101319.69;;;15.82;100.00
76297;BME280;65104;52.994;6.552;2023-07-13T05:46:11;101313.66;;;15.87;100.00
76297;BME280;65104;52.994;6.552;2023-07-13T05:48:36;101313.69;;;15.96;100.00
76297;BME280;65104;52.994;6.552;2023-07-13T05:51:03;101323.19;;;15.94;100.00
76297;BME280;65104;52.994;6.552;2023-07-13T05:53:28;101328.41;;;15.99;100.00
76297;BME280;65104;52.994;6.552;2023-07-13T05:55:55;101322.41;;;16.13;100.00
76297;BME280;65104;52.994;6.552;2023-07-13T05:58:21;101324.16;;;16.24;100.00
76297;BME280;65104;52.994;6.552;2023-07-13T06:00:48;101335.41;;;16.29;100.00
76297;BME280;65104;52.994;6.552;2023-07-13T06:03:14;101337.16;;;16.39;100.00
76297;BME280;65104;52.994;6.552;2023-07-13T06:05:39;101328.53;;;16.47;100.00
76297;BME280;65104;52.994;6.552;2023-07-13T06:08:06;101334.63;;;16.52;100.00
76297;BME280;65104;52.994;6.552;2023-07-13T06:10:33;101326.00;;;16.66;100.00
76297;BME280;65104;52.994;6.552;2023-07-13T06:12:59;101327.75;;;16.70;100.00
76297;BME280;65104;52.994;6.552;2023-07-13T06:15:24;101332.06;;;16.74;100.00
76297;BME280;65104;52.994;6.552;2023-07-13T06:17:49;101339.88;;;16.94;100.00
76297;BME280;65104;52.994;6.552;2023-07-13T06:20:16;101335.56;;;17.02;100.00
76297;BME280;65104;52.994;6.552;2023-07-13T06:22:41;101322.59;;;17.12;100.00
76297;BME280;65104;52.994;6.552;2023-07-13T06:25:08;101331.22;;;17.20;100.00
76297;BME280;65104;52.994;6.552;2023-07-13T06:27:34;101331.25;;;17.22;100.00
76297;BME280;65104;52.994;6.552;2023-07-13T06:29:59;101336.44;;;17.20;100.00
76297;BME280;65104;52.994;6.552;2023-07-13T06:32:25;101334.66;;;17.36;100.00
76297;BME280;65104;52.994;6.552;2023-07-13T06:34:50;101332.94;;;17.53;100.00
76297;BME280;65104;52.994;6.552;2023-07-13T06:37:18;101334.66;;;17.63;100.00
76297;BME280;65104;52.994;6.552;2023-07-13T06:39:43;101329.47;;;17.65;100.00
76297;BME280;65104;52.994;6.552;2023-07-13T06:42:09;101333.78;;;17.80;100.00
76297;BME280;65104;52.994;6.552;2023-07-13T06:44:35;101339.78;;;17.92;100.00
76297;BME280;65104;52.994;6.552;2023-07-13T06:47:02;101338.03;;;17.91;100.00
76297;BME280;65104;52.994;6.552;2023-07-13T06:49:27;101331.09;;;17.96;100.00
76297;BME280;65104;52.994;6.552;2023-07-13T06:51:53;101342.31;;;18.09;100.00
76297;BME280;65104;52.994;6.552;2023-07-13T06:54:19;101337.09;;;18.15;100.00
76297;BME280;65104;52.994;6.552;2023-07-13T06:56:45;101336.19;;;18.24;100.00
76297;BME280;65104;52.994;6.552;2023-07-13T06:59:13;101346.56;;;18.28;100.00
76297;BME280;65104;52.994;6.552;2023-07-13T07:01:39;101343.00;;;18.43;100.00
76297;BME280;65104;52.994;6.552;2023-07-13T07:04:05;101344.72;;;18.50;100.00
76297;BME280;65104;52.994;6.552;2023-07-13T07:06:33;101342.78;;;18.81;100.00
76297;BME280;65104;52.994;6.552;2023-07-13T07:08:59;101340.97;;;18.94;100.00
76297;BME280;65104;52.994;6.552;2023-07-13T07:11:25;101345.19;;;19.11;100.00
76297;BME280;65104;52.994;6.552;2023-07-13T07:13:52;101342.31;;;19.40;100.00
76297;BME280;65104;52.994;6.552;2023-07-13T07:16:19;101339.75;;;19.36;100.00
76297;BME280;65104;52.994;6.552;2023-07-13T07:18:45;101339.75;;;19.33;100.00
76297;BME280;65104;52.994;6.552;2023-07-13T07:21:12;101336.44;;;19.19;100.00
76297;BME280;65104;52.994;6.552;2023-07-13T07:23:38;101341.72;;;19.11;100.00
76297;BME280;65104;52.994;6.552;2023-07-13T07:26:05;101346.13;;;18.98;100.00
76297;BME280;65104;52.994;6.552;2023-07-13T07:28:31;101347.84;;;19.02;100.00
76297;BME280;65104;52.994;6.552;2023-07-13T07:30:57;101355.72;;;18.92;100.00
76297;BME280;65104;52.994;6.552;2023-07-13T07:33:23;101354.00;;;18.92;100.00
76297;BME280;65104;52.994;6.552;2023-07-13T07:35:49;101351.34;;;19.00;100.00
76297;BME280;65104;52.994;6.552;2023-07-13T07:38:15;101347.06;;;18.88;100.00
76297;BME280;65104;52.994;6.552;2023-07-13T07:40:41;101345.41;;;18.83;100.00
76297;BME280;65104;52.994;6.552;2023-07-13T07:43:08;101334.97;;;18.87;100.00
76297;BME280;65104;52.994;6.552;2023-07-13T07:45:34;101333.31;;;18.72;100.00
76297;BME280;65104;52.994;6.552;2023-07-13T07:47:59;101337.72;;;18.63;100.00
76297;BME280;65104;52.994;6.552;2023-07-13T07:50:25;101341.22;;;18.59;100.00
76297;BME280;65104;52.994;6.552;2023-07-13T07:52:51;101345.56;;;18.57;100.00
76297;BME280;65104;52.994;6.552;2023-07-13T07:55:17;101350.00;;;18.33;100.00
76297;BME280;65104;52.994;6.552;2023-07-13T07:57:42;101357.91;;;18.12;100.00
76297;BME280;65104;52.994;6.552;2023-07-13T08:00:10;101369.16;;;18.11;100.00
76297;BME280;65104;52.994;6.552;2023-07-13T08:02:36;101370.94;;;17.91;100.00
76297;BME280;65104;52.994;6.552;2023-07-13T08:05:03;101378.75;;;17.92;100.00
76297;BME280;65104;52.994;6.552;2023-07-13T08:07:30;101370.09;;;17.98;100.00
76297;BME280;65104;52.994;6.552;2023-07-13T08:09:56;101365.69;;;18.09;100.00
76297;BME280;65104;52.994;6.552;2023-07-13T08:12:21;101368.28;;;18.09;100.00
76297;BME280;65104;52.994;6.552;2023-07-13T08:14:50;101364.03;;;17.90;100.00
76297;BME280;65104;52.994;6.552;2023-07-13T08:17:20;101359.78;;;17.71;100.00
76297;BME280;65104;52.994;6.552;2023-07-13T08:19:45;101366.69;;;17.50;100.00
76297;BME280;65104;52.994;6.552;2023-07-13T08:22:12;101362.38;;;17.37;100.00
76297;BME280;65104;52.994;6.552;2023-07-13T08:24:38;101379.69;;;17.15;100.00
76297;BME280;65104;52.994;6.552;2023-07-13T08:27:05;101377.09;;;17.23;100.00
76297;BME280;65104;52.994;6.552;2023-07-13T08:29:31;101378.81;;;17.33;100.00
76297;BME280;65104;52.994;6.552;2023-07-13T08:32:00;101382.28;;;17.38;100.00
76297;BME280;65104;52.994;6.552;2023-07-13T08:34:25;101371.91;;;17.35;100.00
76297;BME280;65104;52.994;6.552;2023-07-13T08:36:51;101364.13;;;17.23;100.00
76297;BME280;65104;52.994;6.552;2023-07-13T08:39:18;101353.72;;;17.44;100.00
76297;BME280;65104;52.994;6.552;2023-07-13T08:41:50;101354.56;;;17.46;100.00
76297;BME280;65104;52.994;6.552;2023-07-13T08:44:33;101365.81;;;17.50;100.00
76297;BME280;65104;52.994;6.552;2023-07-13T08:47:02;101377.94;;;16.95;100.00
76297;BME280;65104;52.994;6.552;2023-07-13T08:49:28;101383.09;;;16.69;100.00
76297;BME280;65104;52.994;6.552;2023-07-13T08:52:16;101392.53;;;16.59;100.00
76297;BME280;65104;52.994;6.552;2023-07-13T08:54:49;101396.03;;;16.61;100.00
76297;BME280;65104;52.994;6.552;2023-07-13T08:57:27;101398.63;;;16.61;100.00
76297;BME280;65104;52.994;6.552;2023-07-13T08:59:56;101396.84;;;16.57;100.00
76297;BME280;65104;52.994;6.552;2023-07-13T09:02:27;101406.38;;;16.60;100.00
76297;BME280;65104;52.994;6.552;2023-07-13T09:04:59;101411.56;;;16.64;100.00
76297;BME280;65104;52.994;6.552;2023-07-13T09:10:19;101434.16;;;16.94;100.00
76297;BME280;65104;52.994;6.552;2023-07-13T09:13:20;101430.69;;;16.94;100.00
76297;BME280;65104;52.994;6.552;2023-07-13T09:15:48;101426.41;;;17.15;100.00
76297;BME280;65104;52.994;6.552;2023-07-13T09:18:50;101427.28;;;17.31;100.00
76297;BME280;65104;52.994;6.552;2023-07-13T09:21:32;101424.66;;;17.55;100.00
76297;BME280;65104;52.994;6.552;2023-07-13T09:24:29;101425.53;;;17.06;100.00
76297;BME280;65104;52.994;6.552;2023-07-13T09:26:57;101422.94;;;17.22;100.00
76297;BME280;65104;52.994;6.552;2023-07-13T09:29:32;101425.53;;;17.15;100.00
76297;BME280;65104;52.994;6.552;2023-07-13T09:32:20;101423.81;;;17.41;100.00
76297;BME280;65104;52.994;6.552;2023-07-13T09:34:54;101431.59;;;17.55;100.00
76297;BME280;65104;52.994;6.552;2023-07-13T09:37:22;101425.53;;;17.54;100.00
76297;BME280;65104;52.994;6.552;2023-07-13T09:39:49;101424.66;;;17.45;100.00
76297;BME280;65104;52.994;6.552;2023-07-13T09:42:16;101435.06;;;17.25;100.00
76297;BME280;65104;52.994;6.552;2023-07-13T09:47:22;101438.41;;;18.33;100.00
76297;BME280;65104;52.994;6.552;2023-07-13T09:49:54;101433.03;;;18.74;100.00
76297;BME280;65104;52.994;6.552;2023-07-13T09:52:21;101432.13;;;18.80;100.00
76297;BME280;65104;52.994;6.552;2023-07-13T09:54:49;101423.16;;;19.27;100.00
76297;BME280;65104;52.994;6.552;2023-07-13T09:57:17;101430.88;;;19.39;100.00
76297;BME280;65104;52.994;6.552;2023-07-13T09:59:47;101437.63;;;19.66;100.00
76297;BME280;65104;52.994;6.552;2023-07-13T10:02:33;101431.44;;;19.76;100.00
76297;BME280;65104;52.994;6.552;2023-07-13T10:05:11;101440.66;;;19.06;100.00
76297;BME280;65104;52.994;6.552;2023-07-13T10:07:44;101442.53;;;18.82;100.00
76297;BME280;65104;52.994;6.552;2023-07-13T10:10:17;101446.00;;;18.82;100.00
76297;BME280;65104;52.994;6.552;2023-07-13T10:12:43;101452.22;;;18.48;100.00
76297;BME280;65104;52.994;6.552;2023-07-13T10:15:17;101460.84;;;18.54;100.00
76297;BME280;65104;52.994;6.552;2023-07-13T10:17:43;101446.19;;;18.40;100.00
76297;BME280;65104;52.994;6.552;2023-07-13T10:20:10;101444.50;;;18.25;100.00
76297;BME280;65104;52.994;6.552;2023-07-13T10:25:28;101448.03;;;18.07;100.00
76297;BME280;65104;52.994;6.552;2023-07-13T10:28:29;101458.41;;;18.01;100.00
76297;BME280;65104;52.994;6.552;2023-07-13T10:30:59;101462.78;;;17.72;100.00
76297;BME280;65104;52.994;6.552;2023-07-13T10:33:27;101473.16;;;17.73;100.00
76297;BME280;65104;52.994;6.552;2023-07-13T10:38:38;101491.25;;;17.09;100.00
76297;BME280;65104;52.994;6.552;2023-07-13T10:41:06;101473.88;;;16.82;100.00
76297;BME280;65104;52.994;6.552;2023-07-13T10:43:47;101480.03;;;17.16;100.00
76297;BME280;65104;52.994;6.552;2023-07-13T10:46:17;101476.63;;;17.96;100.00
76297;BME280;65104;52.994;6.552;2023-07-13T10:48:47;101466.97;;;18.40;100.00
76297;BME280;65104;52.994;6.552;2023-07-13T10:51:17;101460.94;;;18.28;100.00
76297;BME280;65104;52.994;6.552;2023-07-13T10:53:43;101462.72;;;18.23;100.00
76297;BME280;65104;52.994;6.552;2023-07-13T10:56:29;101469.63;;;18.17;100.00
76297;BME280;65104;52.994;6.552;2023-07-13T10:59:09;101468.84;;;17.83;100.00
76297;BME280;65104;52.994;6.552;2023-07-13T11:02:26;101469.72;;;17.76;100.00
76297;BME280;65104;52.994;6.552;2023-07-13T11:04:29;101465.25;;;18.38;100.00
76297;BME280;65104;52.994;6.552;2023-07-13T11:07:16;101456.00;;;19.43;100.00
76297;BME280;65104;52.994;6.552;2023-07-13T11:09:43;101448.91;;;19.68;100.00
76297;BME280;65104;52.994;6.552;2023-07-13T11:15:04;101444.63;;;20.43;100.00
76297;BME280;65104;52.994;6.552;2023-07-13T11:22:49;101440.16;;;21.17;100.00
76297;BME280;65104;52.994;6.552;2023-07-13T11:28:25;101437.66;;;21.08;100.00
76297;BME280;65104;52.994;6.552;2023-07-13T11:36:19;101448.50;;;20.81;100.00
76297;BME280;65104;52.994;6.552;2023-07-13T11:39:01;101438.63;;;21.56;100.00
76297;BME280;65104;52.994;6.552;2023-07-13T11:41:37;101437.59;;;22.16;100.00
76297;BME280;65104;52.994;6.552;2023-07-13T11:44:15;101449.78;;;21.66;100.00
76297;BME280;65104;52.994;6.552;2023-07-13T11:46:49;101452.25;;;20.60;97.73
76297;BME280;65104;52.994;6.552;2023-07-13T11:49:17;101453.19;;;20.54;100.00
76297;BME280;65104;52.994;6.552;2023-07-13T11:51:44;101440.66;;;21.39;88.03
76297;BME280;65104;52.994;6.552;2023-07-13T11:54:21;101445.59;;;21.57;82.24
76297;BME280;65104;52.994;6.552;2023-07-13T11:56:51;101458.56;;;21.65;87.08
76297;BME280;65104;52.994;6.552;2023-07-13T11:59:17;101455.09;;;21.05;87.40
76297;BME280;65104;52.994;6.552;2023-07-13T12:01:50;101459.47;;;21.04;87.04
76297;BME280;65104;52.994;6.552;2023-07-13T12:04:30;101456.56;;;21.27;85.17
76297;BME280;65104;52.994;6.552;2023-07-13T12:07:15;101466.53;;;20.29;77.14
76297;BME280;65104;52.994;6.552;2023-07-13T12:09:42;101460.44;;;20.28;83.15
76297;BME280;65104;52.994;6.552;2023-07-13T12:12:16;101453.06;;;21.28;80.54
76297;BME280;65104;52.994;6.552;2023-07-13T12:14:43;101456.34;;;21.91;77.70
76297;BME280;65104;52.994;6.552;2023-07-13T12:17:19;101454.50;;;21.96;73.48
76297;BME280;65104;52.994;6.552;2023-07-13T12:19:47;101457.56;;;22.20;66.76
76297;BME280;65104;52.994;6.552;2023-07-13T12:22:16;101454.94;;;22.63;65.25
76297;BME280;65104;52.994;6.552;2023-07-13T12:24:43;101463.38;;;22.35;67.08
76297;BME280;65104;52.994;6.552;2023-07-13T12:27:25;101462.13;;;22.53;66.24
76297;BME280;65104;52.994;6.552;2023-07-13T12:30:23;101468.22;;;22.95;65.89
76297;BME280;65104;52.994;6.552;2023-07-13T12:33:07;101471.19;;;22.80;57.53
76297;BME280;65104;52.994;6.552;2023-07-13T12:35:41;101466.00;;;22.34;61.26
76297;BME280;65104;52.994;6.552;2023-07-13T12:38:11;101468.53;;;21.40;63.37
76297;BME280;65104;52.994;6.552;2023-07-13T12:40:38;101476.31;;;21.45;65.15
76297;BME280;65104;52.994;6.552;2023-07-13T12:43:18;101470.94;;;22.49;70.02
76297;BME280;65104;52.994;6.552;2023-07-13T12:45:59;101474.25;;;22.57;56.91
76297;BME280;65104;52.994;6.552;2023-07-13T12:48:25;101469.97;;;22.95;62.78
76297;BME280;65104;52.994;6.552;2023-07-13T12:50:53;101467.34;;;22.96;59.15
76297;BME280;65104;52.994;6.552;2023-07-13T12:53:23;101477.00;;;22.93;61.57
76297;BME280;65104;52.994;6.552;2023-07-13T12:55:52;101471.72;;;23.33;62.79
76297;BME280;65104;52.994;6.552;2023-07-13T12:58:39;101476.88;;;23.71;57.21
76297;BME280;65104;52.994;6.552;2023-07-13T13:01:10;101473.09;;;23.47;58.04
76297;BME280;65104;52.994;6.552;2023-07-13T13:03:39;101487.63;;;22.87;57.57
76297;BME280;65104;52.994;6.552;2023-07-13T13:06:22;101483.69;;;23.06;55.51
76297;BME280;65104;52.994;6.552;2023-07-13T13:08:57;101488.88;;;22.67;57.62
76297;BME280;65104;52.994;6.552;2023-07-13T13:11:28;101493.41;;;22.15;58.92
76297;BME280;65104;52.994;6.552;2023-07-13T13:13:55;101484.66;;;22.60;57.79
76297;BME280;65104;52.994;6.552;2023-07-13T13:18:46;101497.75;;;22.17;59.44
76297;BME280;65104;52.994;6.552;2023-07-13T13:21:11;101496.88;;;22.61;60.23